sensor_id;sensor_type;location;lat;lon;timestamp;P1;durP1;ratioP1;P2;durP2;ratioP2
24151;SDS011;12311;50.866;4.332;2023-03-14T05:45:25;2.03;;;1.35;;
24151;SDS011;12311;50.866;4.332;2023-03-14T05:47:51;1.20;;;0.63;;
24151;SDS011;12311;50.866;4.332;2023-03-14T05:50:16;1.10;;;0.70;;
24151;SDS011;12311;50.866;4.332;2023-03-14T05:52:42;2.17;;;0.65;;
24151;SDS011;12311;50.866;4.332;2023-03-14T05:55:08;1.27;;;0.70;;
24151;SDS011;12311;50.866;4.332;2023-03-14T05:57:34;1.23;;;0.70;;
24151;SDS011;12311;50.866;4.332;2023-03-14T05:59:59;0.90;;;0.55;;
24151;SDS011;12311;50.866;4.332;2023-03-14T06:02:25;1.02;;;0.60;;
24151;SDS011;12311;50.866;4.332;2023-03-14T06:04:50;1.02;;;0.68;;
24151;SDS011;12311;50.866;4.332;2023-03-14T06:07:17;1.23;;;0.70;;
24151;SDS011;12311;50.866;4.332;2023-03-14T06:09:42;0.90;;;0.80;;
24151;SDS011;12311;50.866;4.332;2023-03-14T06:12:08;3.65;;;0.85;;
24151;SDS011;12311;50.866;4.332;2023-03-14T06:14:33;1.83;;;1.02;;
24151;SDS011;12311;50.866;4.332;2023-03-14T06:16:59;1.45;;;0.85;;
24151;SDS011;12311;50.866;4.332;2023-03-14T06:19:25;3.25;;;0.65;;
24151;SDS011;12311;50.866;4.332;2023-03-14T06:21:51;1.35;;;0.80;;
24151;SDS011;12311;50.866;4.332;2023-03-14T06:24:17;2.58;;;0.93;;
24151;SDS011;12311;50.866;4.332;2023-03-14T06:26:43;1.40;;;0.70;;
24151;SDS011;12311;50.866;4.332;2023-03-14T06:29:08;0.85;;;0.77;;
24151;SDS011;12311;50.866;4.332;2023-03-14T06:31:35;7.93;;;0.85;;
24151;SDS011;12311;50.866;4.332;2023-03-14T06:34:00;3.28;;;1.33;;
24151;SDS011;12311;50.866;4.332;2023-03-14T06:36:26;3.40;;;0.70;;
24151;SDS011;12311;50.866;4.332;2023-03-14T06:38:52;1.38;;;0.55;;
24151;SDS011;12311;50.866;4.332;2023-03-14T06:41:19;0.68;;;0.57;;
24151;SDS011;12311;50.866;4.332;2023-03-14T06:43:44;1.05;;;0.55;;
24151;SDS011;12311;50.866;4.332;2023-03-14T06:46:10;0.73;;;0.52;;
24151;SDS011;12311;50.866;4.332;2023-03-14T06:48:36;1.35;;;0.77;;
24151;SDS011;12311;50.866;4.332;2023-03-14T06:51:01;2.50;;;0.63;;
24151;SDS011;12311;50.866;4.332;2023-03-14T06:53:27;1.55;;;0.80;;
24151;SDS011;12311;50.866;4.332;2023-03-14T06:55:53;1.60;;;0.57;;
24151;SDS011;12311;50.866;4.332;2023-03-14T06:58:18;2.90;;;0.68;;
24151;SDS011;12311;50.866;4.332;2023-03-14T07:00:44;1.52;;;0.68;;
24151;SDS011;12311;50.866;4.332;2023-03-14T07:03:10;1.25;;;0.80;;
24151;SDS011;12311;50.866;4.332;2023-03-14T07:05:38;0.77;;;0.77;;
24151;SDS011;12311;50.866;4.332;2023-03-14T07:08:05;1.15;;;0.98;;
24151;SDS011;12311;50.866;4.332;2023-03-14T07:10:31;1.17;;;0.65;;
24151;SDS011;12311;50.866;4.332;2023-03-14T07:12:57;1.00;;;0.40;;
24151;SDS011;12311;50.866;4.332;2023-03-14T07:15:23;0.75;;;0.52;;
24151;SDS011;12311;50.866;4.332;2023-03-14T07:17:48;1.35;;;0.73;;
24151;SDS011;12311;50.866;4.332;2023-03-14T07:20:14;0.50;;;0.50;;
24151;SDS011;12311;50.866;4.332;2023-03-14T07:22:40;0.93;;;0.80;;
24151;SDS011;12311;50.866;4.332;2023-03-14T07:25:06;3.60;;;0.40;;
24151;SDS011;12311;50.866;4.332;2023-03-14T07:27:34;0.70;;;0.70;;
24151;SDS011;12311;50.866;4.332;2023-03-14T07:29:59;0.93;;;0.80;;
24151;SDS011;12311;50.866;4.332;2023-03-14T07:32:25;5.13;;;0.90;;
24151;SDS011;12311;50.866;4.332;2023-03-14T07:34:51;0.82;;;0.60;;
24151;SDS011;12311;50.866;4.332;2023-03-14T07:37:16;0.73;;;0.70;;
24151;SDS011;12311;50.866;4.332;2023-03-14T07:39:42;1.02;;;0.60;;
24151;SDS011;12311;50.866;4.332;2023-03-14T07:42:07;1.65;;;0.90;;
24151;SDS011;12311;50.866;4.332;2023-03-14T07:44:33;0.68;;;0.63;;
24151;SDS011;12311;50.866;4.332;2023-03-14T07:46:59;0.80;;;0.68;;
24151;SDS011;12311;50.866;4.332;2023-03-14T07:49:24;1.60;;;0.93;;
24151;SDS011;12311;50.866;4.332;2023-03-14T07:51:50;1.27;;;1.08;;
24151;SDS011;12311;50.866;4.332;2023-03-14T07:54:16;1.83;;;1.17;;
24151;SDS011;12311;50.866;4.332;2023-03-14T07:56:42;1.00;;;0.65;;
24151;SDS011;12311;50.866;4.332;2023-03-14T07:59:07;3.88;;;1.08;;
24151;SDS011;12311;50.866;4.332;2023-03-14T08:01:33;1.50;;;1.10;;
24151;SDS011;12311;50.866;4.332;2023-03-14T08:03:59;2.35;;;1.05;;
24151;SDS011;12311;50.866;4.332;2023-03-14T08:06:25;2.90;;;1.23;;
24151;SDS011;12311;50.866;4.332;2023-03-14T08:08:51;3.83;;;1.70;;
24151;SDS011;12311;50.866;4.332;2023-03-14T08:11:16;1.58;;;1.10;;
24151;SDS011;12311;50.866;4.332;2023-03-14T08:13:42;2.10;;;1.45;;
24151;SDS011;12311;50.866;4.332;2023-03-14T08:18:41;1.35;;;1.00;;
24151;SDS011;12311;50.866;4.332;2023-03-14T08:21:06;4.85;;;1.42;;
24151;SDS011;12311;50.866;4.332;2023-03-14T08:23:32;3.38;;;1.75;;
24151;SDS011;12311;50.866;4.332;2023-03-14T08:25:58;2.42;;;1.02;;
24151;SDS011;12311;50.866;4.332;2023-03-14T08:28:23;2.85;;;1.27;;
24151;SDS011;12311;50.866;4.332;2023-03-14T08:30:50;1.33;;;0.88;;
24151;SDS011;12311;50.866;4.332;2023-03-14T08:33:15;2.20;;;1.40;;
24151;SDS011;12311;50.866;4.332;2023-03-14T08:35:41;7.53;;;0.80;;
24151;SDS011;12311;50.866;4.332;2023-03-14T08:38:07;2.13;;;1.15;;
24151;SDS011;12311;50.866;4.332;2023-03-14T08:40:32;2.15;;;0.88;;
24151;SDS011;12311;50.866;4.332;2023-03-14T08:42:58;1.75;;;0.82;;
24151;SDS011;12311;50.866;4.332;2023-03-14T08:45:24;0.65;;;0.52;;
24151;SDS011;12311;50.866;4.332;2023-03-14T08:47:50;1.08;;;0.95;;
24151;SDS011;12311;50.866;4.332;2023-03-14T08:50:15;0.77;;;0.77;;
24151;SDS011;12311;50.866;4.332;2023-03-14T08:52:41;1.65;;;0.77;;
24151;SDS011;12311;50.866;4.332;2023-03-14T08:55:07;0.98;;;0.90;;
24151;SDS011;12311;50.866;4.332;2023-03-14T08:57:34;1.88;;;0.80;;
24151;SDS011;12311;50.866;4.332;2023-03-14T09:00:00;1.35;;;0.80;;
24151;SDS011;12311;50.866;4.332;2023-03-14T09:02:25;6.95;;;1.17;;
24151;SDS011;12311;50.866;4.332;2023-03-14T09:04:52;2.08;;;0.98;;
24151;SDS011;12311;50.866;4.332;2023-03-14T09:07:18;2.25;;;1.50;;
24151;SDS011;12311;50.866;4.332;2023-03-14T09:09:44;1.85;;;1.30;;
24151;SDS011;12311;50.866;4.332;2023-03-14T09:12:10;3.72;;;1.52;;
24151;SDS011;12311;50.866;4.332;2023-03-14T09:14:36;2.60;;;1.15;;
24151;SDS011;12311;50.866;4.332;2023-03-14T09:17:03;5.53;;;0.95;;
24151;SDS011;12311;50.866;4.332;2023-03-14T09:19:29;0.85;;;0.82;;
24151;SDS011;12311;50.866;4.332;2023-03-14T09:21:55;1.27;;;0.73;;
24151;SDS011;12311;50.866;4.332;2023-03-14T09:24:20;3.58;;;1.15;;
24151;SDS011;12311;50.866;4.332;2023-03-14T09:26:46;3.33;;;1.00;;
24151;SDS011;12311;50.866;4.332;2023-03-14T09:29:12;2.63;;;0.82;;
24151;SDS011;12311;50.866;4.332;2023-03-14T09:31:38;5.22;;;1.70;;
24151;SDS011;12311;50.866;4.332;2023-03-14T09:34:03;1.95;;;0.90;;
24151;SDS011;12311;50.866;4.332;2023-03-14T09:36:29;2.05;;;1.13;;
24151;SDS011;12311;50.866;4.332;2023-03-14T09:38:55;3.95;;;1.83;;
24151;SDS011;12311;50.866;4.332;2023-03-14T09:41:23;4.70;;;1.05;;
24151;SDS011;12311;50.866;4.332;2023-03-14T09:43:55;5.38;;;1.25;;
24151;SDS011;12311;50.866;4.332;2023-03-14T09:46:35;4.47;;;1.52;;
24151;SDS011;12311;50.866;4.332;2023-03-14T09:49:03;1.52;;;0.73;;
24151;SDS011;12311;50.866;4.332;2023-03-14T09:51:40;1.63;;;0.80;;
24151;SDS011;12311;50.866;4.332;2023-03-14T09:54:11;3.40;;;0.93;;
24151;SDS011;12311;50.866;4.332;2023-03-14T09:57:04;1.80;;;0.88;;
24151;SDS011;12311;50.866;4.332;2023-03-14T09:59:31;1.15;;;0.95;;
24151;SDS011;12311;50.866;4.332;2023-03-14T10:02:01;0.95;;;0.85;;
24151;SDS011;12311;50.866;4.332;2023-03-14T10:04:36;0.82;;;0.80;;
24151;SDS011;12311;50.866;4.332;2023-03-14T10:07:07;4.75;;;1.85;;
24151;SDS011;12311;50.866;4.332;2023-03-14T10:09:38;2.55;;;1.55;;
24151;SDS011;12311;50.866;4.332;2023-03-14T10:12:04;2.50;;;0.80;;
24151;SDS011;12311;50.866;4.332;2023-03-14T10:14:32;1.45;;;1.02;;
24151;SDS011;12311;50.866;4.332;2023-03-14T10:17:07;2.53;;;1.02;;
24151;SDS011;12311;50.866;4.332;2023-03-14T10:19:35;2.70;;;0.90;;
24151;SDS011;12311;50.866;4.332;2023-03-14T10:22:02;0.60;;;0.60;;
24151;SDS011;12311;50.866;4.332;2023-03-14T10:24:31;1.50;;;0.88;;
24151;SDS011;12311;50.866;4.332;2023-03-14T10:27:05;1.98;;;0.70;;
24151;SDS011;12311;50.866;4.332;2023-03-14T10:29:56;2.25;;;0.93;;
24151;SDS011;12311;50.866;4.332;2023-03-14T10:32:28;2.17;;;0.70;;
24151;SDS011;12311;50.866;4.332;2023-03-14T10:35:05;0.70;;;0.70;;
24151;SDS011;12311;50.866;4.332;2023-03-14T10:37:47;1.05;;;0.68;;
24151;SDS011;12311;50.866;4.332;2023-03-14T10:40:39;1.05;;;0.55;;
24151;SDS011;12311;50.866;4.332;2023-03-14T10:43:07;1.35;;;0.60;;
24151;SDS011;12311;50.866;4.332;2023-03-14T10:45:40;2.05;;;0.73;;
24151;SDS011;12311;50.866;4.332;2023-03-14T10:53:24;5.25;;;0.57;;
24151;SDS011;12311;50.866;4.332;2023-03-14T10:55:50;2.50;;;0.50;;
24151;SDS011;12311;50.866;4.332;2023-03-14T10:58:20;2.17;;;0.50;;
24151;SDS011;12311;50.866;4.332;2023-03-14T11:00:58;1.00;;;0.90;;
24151;SDS011;12311;50.866;4.332;2023-03-14T11:03:35;1.55;;;0.63;;
24151;SDS011;12311;50.866;4.332;2023-03-14T11:11:46;1.13;;;0.60;;
24151;SDS011;12311;50.866;4.332;2023-03-14T11:17:25;0.73;;;0.73;;
24151;SDS011;12311;50.866;4.332;2023-03-14T11:25:45;0.32;;;0.30;;
24151;SDS011;12311;50.866;4.332;2023-03-14T11:31:04;0.30;;;0.30;;
24151;SDS011;12311;50.866;4.332;2023-03-14T11:36:20;0.40;;;0.40;;
24151;SDS011;12311;50.866;4.332;2023-03-14T11:38:50;0.35;;;0.30;;
24151;SDS011;12311;50.866;4.332;2023-03-14T11:43:57;0.40;;;0.40;;
24151;SDS011;12311;50.866;4.332;2023-03-14T11:46:32;0.90;;;0.50;;
24151;SDS011;12311;50.866;4.332;2023-03-14T11:49:06;0.68;;;0.50;;
24151;SDS011;12311;50.866;4.332;2023-03-14T11:51:39;0.43;;;0.43;;
24151;SDS011;12311;50.866;4.332;2023-03-14T11:54:25;0.40;;;0.40;;
24151;SDS011;12311;50.866;4.332;2023-03-14T11:57:01;0.63;;;0.50;;
24151;SDS011;12311;50.866;4.332;2023-03-14T11:59:55;0.70;;;0.52;;
24151;SDS011;12311;50.866;4.332;2023-03-14T12:07:47;0.40;;;0.40;;
24151;SDS011;12311;50.866;4.332;2023-03-14T12:10:26;0.40;;;0.40;;
24151;SDS011;12311;50.866;4.332;2023-03-14T12:12:52;1.40;;;0.43;;
24151;SDS011;12311;50.866;4.332;2023-03-14T12:15:19;1.15;;;0.60;;
24151;SDS011;12311;50.866;4.332;2023-03-14T12:17:46;1.10;;;0.52;;
24151;SDS011;12311;50.866;4.332;2023-03-14T12:20:20;0.30;;;0.30;;
24151;SDS011;12311;50.866;4.332;2023-03-14T12:22:47;0.60;;;0.60;;
24151;SDS011;12311;50.866;4.332;2023-03-14T12:30:24;0.30;;;0.30;;
24151;SDS011;12311;50.866;4.332;2023-03-14T12:35:46;0.30;;;0.30;;
24151;SDS011;12311;50.866;4.332;2023-03-14T12:38:17;0.60;;;0.60;;
24151;SDS011;12311;50.866;4.332;2023-03-14T12:43:42;3.33;;;0.57;;
24151;SDS011;12311;50.866;4.332;2023-03-14T12:48:34;1.85;;;0.77;;
24151;SDS011;12311;50.866;4.332;2023-03-14T12:51:03;0.70;;;0.60;;
24151;SDS011;12311;50.866;4.332;2023-03-14T12:53:41;5.47;;;0.57;;
24151;SDS011;12311;50.866;4.332;2023-03-14T12:59:05;0.47;;;0.47;;
24151;SDS011;12311;50.866;4.332;2023-03-14T13:01:34;0.52;;;0.52;;
24151;SDS011;12311;50.866;4.332;2023-03-14T13:04:07;1.00;;;0.68;;
24151;SDS011;12311;50.866;4.332;2023-03-14T13:11:54;0.63;;;0.63;;
24151;SDS011;12311;50.866;4.332;2023-03-14T13:14:27;2.22;;;0.70;;
24151;SDS011;12311;50.866;4.332;2023-03-14T13:16:54;0.60;;;0.60;;
24151;SDS011;12311;50.866;4.332;2023-03-14T13:19:29;1.27;;;0.73;;
24151;SDS011;12311;50.866;4.332;2023-03-14T13:22:20;6.63;;;0.65;;
24151;SDS011;12311;50.866;4.332;2023-03-14T13:24:49;0.80;;;0.50;;
24151;SDS011;12311;50.866;4.332;2023-03-14T13:27:19;6.32;;;0.65;;
24151;SDS011;12311;50.866;4.332;2023-03-14T13:29:48;0.88;;;0.68;;
24151;SDS011;12311;50.866;4.332;2023-03-14T13:32:19;0.90;;;0.90;;
24151;SDS011;12311;50.866;4.332;2023-03-14T13:34:46;1.45;;;0.50;;
24151;SDS011;12311;50.866;4.332;2023-03-14T13:37:20;5.88;;;0.50;;
24151;SDS011;12311;50.866;4.332;2023-03-14T13:39:55;4.97;;;1.40;;
24151;SDS011;12311;50.866;4.332;2023-03-14T13:42:26;4.78;;;0.82;;
24151;SDS011;12311;50.866;4.332;2023-03-14T13:44:54;14.80;;;1.20;;
24151;SDS011;12311;50.866;4.332;2023-03-14T13:47:21;8.70;;;0.90;;
24151;SDS011;12311;50.866;4.332;2023-03-14T13:49:49;2.40;;;1.40;;
24151;SDS011;12311;50.866;4.332;2023-03-14T13:54:56;2.90;;;1.02;;
24151;SDS011;12311;50.866;4.332;2023-03-14T13:57:23;4.13;;;1.13;;
24151;SDS011;12311;50.866;4.332;2023-03-14T13:59:59;2.30;;;1.00;;
24151;SDS011;12311;50.866;4.332;2023-03-14T14:02:31;2.35;;;1.60;;
24151;SDS011;12311;50.866;4.332;2023-03-14T14:04:59;7.63;;;1.58;;
24151;SDS011;12311;50.866;4.332;2023-03-14T14:07:25;5.30;;;1.67;;
24151;SDS011;12311;50.866;4.332;2023-03-14T14:09:51;3.22;;;1.42;;
24151;SDS011;12311;50.866;4.332;2023-03-14T14:12:29;4.75;;;0.75;;
24151;SDS011;12311;50.866;4.332;2023-03-14T14:15:04;3.50;;;1.42;;
24151;SDS011;12311;50.866;4.332;2023-03-14T14:20:04;0.88;;;0.60;;
24151;SDS011;12311;50.866;4.332;2023-03-14T14:22:36;1.13;;;0.60;;
24151;SDS011;12311;50.866;4.332;2023-03-14T14:25:01;1.17;;;0.63;;
24151;SDS011;12311;50.866;4.332;2023-03-14T14:27:37;6.10;;;0.98;;
24151;SDS011;12311;50.866;4.332;2023-03-14T14:30:24;1.00;;;0.80;;
24151;SDS011;12311;50.866;4.332;2023-03-14T14:33:10;4.93;;;0.93;;
24151;SDS011;12311;50.866;4.332;2023-03-14T14:35:38;5.45;;;0.73;;
24151;SDS011;12311;50.866;4.332;2023-03-14T14:38:09;2.22;;;1.23;;
24151;SDS011;12311;50.866;4.332;2023-03-14T14:40:40;1.60;;;0.80;;
24151;SDS011;12311;50.866;4.332;2023-03-14T14:43:10;1.27;;;0.50;;
24151;SDS011;12311;50.866;4.332;2023-03-14T14:45:47;4.95;;;0.90;;
24151;SDS011;12311;50.866;4.332;2023-03-14T14:48:25;0.60;;;0.60;;
24151;SDS011;12311;50.866;4.332;2023-03-14T14:51:01;0.80;;;0.50;;
24151;SDS011;12311;50.866;4.332;2023-03-14T14:53:42;0.52;;;0.52;;
24151;SDS011;12311;50.866;4.332;2023-03-14T14:56:26;0.82;;;0.57;;
24151;SDS011;12311;50.866;4.332;2023-03-14T14:58:59;0.30;;;0.30;;
24151;SDS011;12311;50.866;4.332;2023-03-14T15:01:31;0.40;;;0.40;;
24151;SDS011;12311;50.866;4.332;2023-03-14T15:03:59;1.00;;;0.60;;
24151;SDS011;12311;50.866;4.332;2023-03-14T15:06:26;0.32;;;0.32;;
24151;SDS011;12311;50.866;4.332;2023-03-14T15:08:54;0.30;;;0.30;;
24151;SDS011;12311;50.866;4.332;2023-03-14T15:11:21;0.45;;;0.35;;
24151;SDS011;12311;50.866;4.332;2023-03-14T15:13:49;1.40;;;0.70;;
24151;SDS011;12311;50.866;4.332;2023-03-14T15:16:15;0.88;;;0.50;;
24151;SDS011;12311;50.866;4.332;2023-03-14T15:18:52;0.28;;;0.28;;
24151;SDS011;12311;50.866;4.332;2023-03-14T15:21:23;0.57;;;0.50;;
24151;SDS011;12311;50.866;4.332;2023-03-14T15:23:49;0.40;;;0.40;;
24151;SDS011;12311;50.866;4.332;2023-03-14T15:26:17;0.30;;;0.30;;
24151;SDS011;12311;50.866;4.332;2023-03-14T15:28:48;1.45;;;0.85;;
24151;SDS011;12311;50.866;4.332;2023-03-14T15:31:15;0.47;;;0.47;;
24151;SDS011;12311;50.866;4.332;2023-03-14T15:33:42;1.35;;;0.73;;
24151;SDS011;12311;50.866;4.332;2023-03-14T15:36:23;1.45;;;0.45;;
24151;SDS011;12311;50.866;4.332;2023-03-14T15:38:49;0.47;;;0.47;;
24151;SDS011;12311;50.866;4.332;2023-03-14T15:41:16;2.22;;;0.68;;
24151;SDS011;12311;50.866;4.332;2023-03-14T15:43:43;1.52;;;0.73;;
24151;SDS011;12311;50.866;4.332;2023-03-14T15:46:09;1.98;;;0.93;;
24151;SDS011;12311;50.866;4.332;2023-03-14T15:48:35;1.42;;;0.75;;
24151;SDS011;12311;50.866;4.332;2023-03-14T15:51:01;0.32;;;0.32;;
24151;SDS011;12311;50.866;4.332;2023-03-14T15:53:27;1.70;;;0.63;;
24151;SDS011;12311;50.866;4.332;2023-03-14T15:55:52;3.20;;;0.68;;
24151;SDS011;12311;50.866;4.332;2023-03-14T15:58:18;0.30;;;0.30;;
24151;SDS011;12311;50.866;4.332;2023-03-14T16:00:45;0.30;;;0.30;;
24151;SDS011;12311;50.866;4.332;2023-03-14T16:03:11;1.40;;;0.50;;
24151;SDS011;12311;50.866;4.332;2023-03-14T16:05:38;0.45;;;0.40;;
24151;SDS011;12311;50.866;4.332;2023-03-14T16:08:05;2.75;;;0.93;;
24151;SDS011;12311;50.866;4.332;2023-03-14T16:10:31;1.70;;;0.50;;
24151;SDS011;12311;50.866;4.332;2023-03-14T16:12:57;0.30;;;0.30;;
24151;SDS011;12311;50.866;4.332;2023-03-14T16:15:23;0.57;;;0.57;;
24151;SDS011;12311;50.866;4.332;2023-03-14T16:17:54;5.20;;;0.75;;
24151;SDS011;12311;50.866;4.332;2023-03-14T16:20:21;0.50;;;0.50;;
24151;SDS011;12311;50.866;4.332;2023-03-14T16:22:47;0.50;;;0.50;;
24151;SDS011;12311;50.866;4.332;2023-03-14T16:25:13;3.60;;;0.93;;
24151;SDS011;12311;50.866;4.332;2023-03-14T16:27:39;0.73;;;0.40;;
24151;SDS011;12311;50.866;4.332;2023-03-14T16:30:06;1.77;;;0.90;;
24151;SDS011;12311;50.866;4.332;2023-03-14T16:32:34;4.68;;;0.63;;
24151;SDS011;12311;50.866;4.332;2023-03-14T16:35:01;1.13;;;1.02;;
24151;SDS011;12311;50.866;4.332;2023-03-14T16:37:26;2.63;;;0.70;;
24151;SDS011;12311;50.866;4.332;2023-03-14T16:39:52;0.82;;;0.65;;
24151;SDS011;12311;50.866;4.332;2023-03-14T16:42:18;6.35;;;0.90;;
24151;SDS011;12311;50.866;4.332;2023-03-14T16:44:45;6.10;;;0.47;;
24151;SDS011;12311;50.866;4.332;2023-03-14T16:47:11;9.38;;;0.90;;
24151;SDS011;12311;50.866;4.332;2023-03-14T16:49:36;0.40;;;0.40;;
24151;SDS011;12311;50.866;4.332;2023-03-14T16:52:02;3.78;;;0.73;;
24151;SDS011;12311;50.866;4.332;2023-03-14T16:54:29;1.67;;;0.70;;
24151;SDS011;12311;50.866;4.332;2023-03-14T16:56:54;7.07;;;1.10;;
24151;SDS011;12311;50.866;4.332;2023-03-14T16:59:20;8.85;;;0.80;;
24151;SDS011;12311;50.866;4.332;2023-03-14T17:01:46;5.50;;;1.45;;
24151;SDS011;12311;50.866;4.332;2023-03-14T17:04:11;3.30;;;1.48;;
24151;SDS011;12311;50.866;4.332;2023-03-14T17:06:37;2.05;;;0.75;;
24151;SDS011;12311;50.866;4.332;2023-03-14T17:09:03;6.82;;;0.45;;
24151;SDS011;12311;50.866;4.332;2023-03-14T17:11:30;0.80;;;0.40;;
24151;SDS011;12311;50.866;4.332;2023-03-14T17:13:57;1.65;;;0.95;;
24151;SDS011;12311;50.866;4.332;2023-03-14T17:16:24;1.80;;;0.73;;
24151;SDS011;12311;50.866;4.332;2023-03-14T17:18:50;2.10;;;1.02;;
24151;SDS011;12311;50.866;4.332;2023-03-14T17:21:16;0.50;;;0.50;;
24151;SDS011;12311;50.866;4.332;2023-03-14T17:23:42;4.88;;;0.98;;
24151;SDS011;12311;50.866;4.332;2023-03-14T17:26:08;3.65;;;1.30;;
24151;SDS011;12311;50.866;4.332;2023-03-14T17:28:34;2.20;;;1.10;;
24151;SDS011;12311;50.866;4.332;2023-03-14T17:31:00;3.58;;;1.02;;
24151;SDS011;12311;50.866;4.332;2023-03-14T17:33:30;4.37;;;1.00;;
24151;SDS011;12311;50.866;4.332;2023-03-14T17:35:56;2.83;;;0.60;;
24151;SDS011;12311;50.866;4.332;2023-03-14T17:38:22;1.98;;;0.60;;
24151;SDS011;12311;50.866;4.332;2023-03-14T17:40:48;0.60;;;0.60;;
24151;SDS011;12311;50.866;4.332;2023-03-14T17:43:14;2.83;;;0.90;;
24151;SDS011;12311;50.866;4.332;2023-03-14T17:45:41;10.27;;;0.80;;
24151;SDS011;12311;50.866;4.332;2023-03-14T17:48:07;9.15;;;1.02;;
24151;SDS011;12311;50.866;4.332;2023-03-14T17:50:34;2.15;;;0.55;;
24151;SDS011;12311;50.866;4.332;2023-03-14T17:53:00;7.03;;;1.77;;
24151;SDS011;12311;50.866;4.332;2023-03-14T17:55:25;7.30;;;1.60;;
24151;SDS011;12311;50.866;4.332;2023-03-14T17:57:51;5.43;;;1.15;;
24151;SDS011;12311;50.866;4.332;2023-03-14T18:00:17;9.43;;;1.17;;
24151;SDS011;12311;50.866;4.332;2023-03-14T18:02:44;3.92;;;1.25;;
24151;SDS011;12311;50.866;4.332;2023-03-14T18:05:10;3.97;;;0.95;;
24151;SDS011;12311;50.866;4.332;2023-03-14T18:07:36;1.52;;;1.00;;
24151;SDS011;12311;50.866;4.332;2023-03-14T18:10:03;4.10;;;1.08;;
24151;SDS011;12311;50.866;4.332;2023-03-14T18:12:30;5.03;;;1.60;;
24151;SDS011;12311;50.866;4.332;2023-03-14T18:14:56;7.97;;;1.65;;
24151;SDS011;12311;50.866;4.332;2023-03-14T18:17:22;1.25;;;1.00;;
24151;SDS011;12311;50.866;4.332;2023-03-14T18:19:47;4.18;;;0.77;;
24151;SDS011;12311;50.866;4.332;2023-03-14T18:22:13;5.32;;;1.10;;
24151;SDS011;12311;50.866;4.332;2023-03-14T18:24:40;1.40;;;0.90;;
24151;SDS011;12311;50.866;4.332;2023-03-14T18:27:06;4.43;;;1.60;;
24151;SDS011;12311;50.866;4.332;2023-03-14T18:29:31;2.60;;;1.40;;
24151;SDS011;12311;50.866;4.332;2023-03-14T18:31:58;17.95;;;2.63;;
24151;SDS011;12311;50.866;4.332;2023-03-14T18:34:24;2.67;;;1.60;;
24151;SDS011;12311;50.866;4.332;2023-03-14T18:36:51;10.93;;;1.77;;
24151;SDS011;12311;50.866;4.332;2023-03-14T18:39:17;5.18;;;1.63;;
24151;SDS011;12311;50.866;4.332;2023-03-14T18:41:43;2.20;;;1.10;;
24151;SDS011;12311;50.866;4.332;2023-03-14T18:44:08;1.02;;;0.77;;
24151;SDS011;12311;50.866;4.332;2023-03-14T18:46:35;1.67;;;1.08;;
24151;SDS011;12311;50.866;4.332;2023-03-14T18:49:01;3.40;;;1.30;;
24151;SDS011;12311;50.866;4.332;2023-03-14T18:51:30;2.30;;;1.00;;
24151;SDS011;12311;50.866;4.332;2023-03-14T18:53:57;4.25;;;1.45;;
24151;SDS011;12311;50.866;4.332;2023-03-14T18:56:25;1.42;;;1.10;;
24151;SDS011;12311;50.866;4.332;2023-03-14T18:58:51;3.92;;;1.52;;
24151;SDS011;12311;50.866;4.332;2023-03-14T19:01:17;3.13;;;1.13;;
24151;SDS011;12311;50.866;4.332;2023-03-14T19:03:43;4.38;;;1.38;;
24151;SDS011;12311;50.866;4.332;2023-03-14T19:06:13;7.78;;;1.40;;
24151;SDS011;12311;50.866;4.332;2023-03-14T19:08:39;3.85;;;1.83;;
24151;SDS011;12311;50.866;4.332;2023-03-14T19:11:08;1.38;;;1.05;;
24151;SDS011;12311;50.866;4.332;2023-03-14T19:13:36;13.45;;;2.33;;
24151;SDS011;12311;50.866;4.332;2023-03-14T19:16:03;6.95;;;1.88;;
24151;SDS011;12311;50.866;4.332;2023-03-14T19:18:29;4.20;;;1.77;;
24151;SDS011;12311;50.866;4.332;2023-03-14T19:21:09;3.10;;;1.25;;
24151;SDS011;12311;50.866;4.332;2023-03-14T19:23:37;5.07;;;2.33;;
24151;SDS011;12311;50.866;4.332;2023-03-14T19:26:05;1.20;;;1.10;;
24151;SDS011;12311;50.866;4.332;2023-03-14T19:28:31;9.75;;;1.88;;
24151;SDS011;12311;50.866;4.332;2023-03-14T19:30:57;1.35;;;0.93;;
24151;SDS011;12311;50.866;4.332;2023-03-14T19:33:25;4.47;;;1.35;;
24151;SDS011;12311;50.866;4.332;2023-03-14T19:35:51;7.78;;;1.63;;
24151;SDS011;12311;50.866;4.332;2023-03-14T19:38:17;5.45;;;1.85;;
24151;SDS011;12311;50.866;4.332;2023-03-14T19:40:43;23.88;;;2.00;;
24151;SDS011;12311;50.866;4.332;2023-03-14T19:43:09;4.38;;;1.70;;
24151;SDS011;12311;50.866;4.332;2023-03-14T19:45:35;3.55;;;1.85;;
24151;SDS011;12311;50.866;4.332;2023-03-14T19:48:01;11.23;;;1.65;;
24151;SDS011;12311;50.866;4.332;2023-03-14T19:50:28;3.45;;;1.25;;
24151;SDS011;12311;50.866;4.332;2023-03-14T19:52:55;1.67;;;1.08;;
24151;SDS011;12311;50.866;4.332;2023-03-14T19:55:22;1.17;;;0.98;;
24151;SDS011;12311;50.866;4.332;2023-03-14T19:57:49;8.27;;;1.83;;
24151;SDS011;12311;50.866;4.332;2023-03-14T20:00:16;1.13;;;1.10;;
24151;SDS011;12311;50.866;4.332;2023-03-14T20:02:46;3.75;;;1.48;;
24151;SDS011;12311;50.866;4.332;2023-03-14T20:05:16;6.80;;;1.60;;
24151;SDS011;12311;50.866;4.332;2023-03-14T20:07:43;4.13;;;1.40;;
24151;SDS011;12311;50.866;4.332;2023-03-14T20:10:11;2.15;;;1.20;;
24151;SDS011;12311;50.866;4.332;2023-03-14T20:12:42;2.08;;;1.20;;
24151;SDS011;12311;50.866;4.332;2023-03-14T20:15:09;1.63;;;1.23;;
24151;SDS011;12311;50.866;4.332;2023-03-14T20:17:38;2.92;;;1.38;;
24151;SDS011;12311;50.866;4.332;2023-03-14T20:20:05;5.00;;;1.88;;
24151;SDS011;12311;50.866;4.332;2023-03-14T20:22:32;1.38;;;1.15;;
24151;SDS011;12311;50.866;4.332;2023-03-14T20:25:06;7.55;;;1.90;;
24151;SDS011;12311;50.866;4.332;2023-03-14T20:27:33;10.75;;;1.50;;
24151;SDS011;12311;50.866;4.332;2023-03-14T20:29:59;12.98;;;1.25;;
24151;SDS011;12311;50.866;4.332;2023-03-14T20:32:27;3.40;;;1.17;;
24151;SDS011;12311;50.866;4.332;2023-03-14T20:34:52;6.53;;;1.95;;
24151;SDS011;12311;50.866;4.332;2023-03-14T20:37:19;3.85;;;1.00;;
24151;SDS011;12311;50.866;4.332;2023-03-14T20:39:47;2.22;;;1.60;;
24151;SDS011;12311;50.866;4.332;2023-03-14T20:42:16;2.60;;;1.13;;
24151;SDS011;12311;50.866;4.332;2023-03-14T20:44:42;9.73;;;1.38;;
24151;SDS011;12311;50.866;4.332;2023-03-14T20:47:08;4.45;;;1.80;;
24151;SDS011;12311;50.866;4.332;2023-03-14T20:49:35;5.63;;;1.95;;
24151;SDS011;12311;50.866;4.332;2023-03-14T20:52:01;1.85;;;1.33;;
24151;SDS011;12311;50.866;4.332;2023-03-14T20:54:26;1.55;;;1.40;;
24151;SDS011;12311;50.866;4.332;2023-03-14T20:56:52;2.53;;;1.80;;
24151;SDS011;12311;50.866;4.332;2023-03-14T20:59:18;2.30;;;1.33;;
24151;SDS011;12311;50.866;4.332;2023-03-14T21:01:44;4.75;;;1.83;;
24151;SDS011;12311;50.866;4.332;2023-03-14T21:04:11;2.38;;;1.25;;
24151;SDS011;12311;50.866;4.332;2023-03-14T21:06:37;1.63;;;1.20;;
24151;SDS011;12311;50.866;4.332;2023-03-14T21:09:03;5.82;;;1.67;;
24151;SDS011;12311;50.866;4.332;2023-03-14T21:11:30;5.90;;;2.75;;
24151;SDS011;12311;50.866;4.332;2023-03-14T21:13:57;3.35;;;1.83;;
24151;SDS011;12311;50.866;4.332;2023-03-14T21:16:23;7.25;;;1.58;;
